createdAt,value
2022-11-26T00:00:53.775Z,6.70
2022-11-26T00:03:26.170Z,6.70
2022-11-26T00:05:58.781Z,6.70
2022-11-26T00:08:35.407Z,6.70
2022-11-26T00:11:14.265Z,6.70
2022-11-26T00:13:46.724Z,6.70
2022-11-26T00:16:19.303Z,6.60
2022-11-26T00:21:26.758Z,6.60
2022-11-26T00:29:06.151Z,6.50
2022-11-26T00:31:38.497Z,6.50
2022-11-26T00:34:10.373Z,6.50
2022-11-26T00:36:45.010Z,6.40
2022-11-26T00:39:23.913Z,6.30
2022-11-26T00:44:29.146Z,6.20
2022-11-26T00:47:01.468Z,6.20
2022-11-26T00:49:33.378Z,6.20
2022-11-26T00:52:29.076Z,6.10
2022-11-26T00:55:09.761Z,6.00
2022-11-26T00:57:41.899Z,6.00
2022-11-26T01:00:24.645Z,6.10
2022-11-26T01:02:57.272Z,6.10
2022-11-26T01:05:33.878Z,6.20
2022-11-26T01:08:31.960Z,6.30
2022-11-26T01:11:06.095Z,6.40
2022-11-26T01:16:25.836Z,6.50
2022-11-26T01:19:00.735Z,6.60
2022-11-26T01:21:33.821Z,6.60
2022-11-26T01:24:06.485Z,6.70
2022-11-26T01:26:42.818Z,6.70
2022-11-26T01:29:19.696Z,6.80
2022-11-26T01:31:52.671Z,6.80
2022-11-26T01:34:24.631Z,6.70
2022-11-26T01:36:57.405Z,6.80
2022-11-26T01:39:29.527Z,6.80
2022-11-26T01:42:23.501Z,6.80
2022-11-26T01:44:55.785Z,6.90
2022-11-26T01:47:30.656Z,7.00
2022-11-26T01:50:27.861Z,6.90
2022-11-26T01:53:47.536Z,7.00
2022-11-26T01:56:32.562Z,7.10
2022-11-26T01:59:12.832Z,7.10
2022-11-26T02:01:45.040Z,7.10
2022-11-26T02:04:26.155Z,7.10
2022-11-26T02:06:59.103Z,7.20
2022-11-26T02:09:32.195Z,7.10
2022-11-26T02:12:04.395Z,7.00
2022-11-26T02:14:41.584Z,6.90
2022-11-26T02:17:23.514Z,6.90
2022-11-26T02:20:34.652Z,6.80
2022-11-26T02:23:45.026Z,6.80
2022-11-26T02:26:48.793Z,6.90
2022-11-26T02:29:49.546Z,6.90
2022-11-26T02:32:41.672Z,6.80
2022-11-26T02:35:37.484Z,6.90
2022-11-26T02:38:30.736Z,6.90
2022-11-26T02:43:37.806Z,6.90
2022-11-26T02:46:18.308Z,6.80
2022-11-26T02:48:52.750Z,6.90
2022-11-26T02:51:32.001Z,6.90
2022-11-26T02:54:09.650Z,6.90
2022-11-26T02:56:42.592Z,6.80
2022-11-26T02:59:15.625Z,6.80
2022-11-26T03:02:03.421Z,6.70
2022-11-26T03:04:40.976Z,6.60
2022-11-26T03:07:15.175Z,6.60
2022-11-26T03:10:00.764Z,6.50
2022-11-26T03:15:07.924Z,6.50
2022-11-26T03:20:13.283Z,6.50
2022-11-26T03:22:45.480Z,6.40
2022-11-26T03:25:18.660Z,6.40
2022-11-26T03:27:50.501Z,6.40
2022-11-26T03:30:23.445Z,6.50
2022-11-26T03:35:28.670Z,6.50
2022-11-26T03:38:00.947Z,6.40
2022-11-26T03:40:32.845Z,6.40
2022-11-26T03:43:05.862Z,6.30
2022-11-26T03:45:38.219Z,6.30
2022-11-26T03:48:10.530Z,6.20
2022-11-26T03:50:42.942Z,6.10
2022-11-26T03:53:15.259Z,6.10
2022-11-26T03:55:48.739Z,6.00
2022-11-26T03:58:20.612Z,5.90
2022-11-26T04:03:25.915Z,5.80
2022-11-26T04:05:58.703Z,5.80
2022-11-26T04:08:30.559Z,5.70
2022-11-26T04:11:03.332Z,5.70
2022-11-26T04:13:35.504Z,5.70
2022-11-26T04:16:08.826Z,5.60
2022-11-26T04:18:40.722Z,5.60
2022-11-26T04:21:13.647Z,5.60
2022-11-26T04:26:18.669Z,5.60
2022-11-26T04:28:51.351Z,5.70
2022-11-26T04:31:23.265Z,5.70
2022-11-26T04:33:55.959Z,5.80
2022-11-26T04:39:00.902Z,5.80
2022-11-26T04:41:32.987Z,5.80
2022-11-26T04:44:06.405Z,5.90
2022-11-26T04:49:10.985Z,6.00
2022-11-26T04:54:16.168Z,6.10
2022-11-26T04:59:22.370Z,6.30
2022-11-26T05:04:28.674Z,6.40
2022-11-26T05:07:01.382Z,6.40
2022-11-26T05:09:33.326Z,6.40
2022-11-26T05:12:05.882Z,6.50
2022-11-26T05:14:38.085Z,7.70
2022-11-26T05:17:10.989Z,7.20
2022-11-26T05:22:16.064Z,6.80
2022-11-26T05:24:47.911Z,6.80
2022-11-26T05:27:20.618Z,6.70
2022-11-26T05:29:54.523Z,6.70
2022-11-26T05:32:26.845Z,6.60
2022-11-26T05:35:00.318Z,6.60
2022-11-26T05:37:32.598Z,6.70
2022-11-26T05:40:06.574Z,6.50
2022-11-26T05:42:39.434Z,6.40
2022-11-26T05:45:12.274Z,6.40
2022-11-26T05:47:44.769Z,6.20
2022-11-26T05:50:17.785Z,6.20
2022-11-26T05:52:52.277Z,6.30
2022-11-26T05:55:24.707Z,6.40
2022-11-26T05:57:57.433Z,6.40
2022-11-26T06:00:29.416Z,6.30
2022-11-26T06:03:02.208Z,6.40
2022-11-26T06:08:07.266Z,6.40
2022-11-26T06:10:42.481Z,6.50
2022-11-26T06:13:14.449Z,6.50
2022-11-26T06:15:47.265Z,6.50
2022-11-26T06:18:19.169Z,6.50
2022-11-26T06:20:51.835Z,6.60
2022-11-26T06:25:57.053Z,6.60
2022-11-26T06:28:29.355Z,6.60
2022-11-26T06:31:01.228Z,6.60
2022-11-26T06:36:06.694Z,6.60
2022-11-26T06:38:39.382Z,6.50
2022-11-26T06:41:11.228Z,6.50
2022-11-26T06:43:43.900Z,6.50
2022-11-26T06:46:15.851Z,6.60
2022-11-26T06:48:48.552Z,6.70
2022-11-26T06:51:21.823Z,6.70
2022-11-26T06:53:55.068Z,6.80
2022-11-26T06:56:26.945Z,6.80
2022-11-26T06:58:59.642Z,6.80
2022-11-26T07:01:32.016Z,6.70
2022-11-26T07:04:04.628Z,6.60
2022-11-26T07:09:11.669Z,6.40
2022-11-26T07:11:44.108Z,6.50
2022-11-26T07:14:16.460Z,6.40
2022-11-26T07:16:49.236Z,6.50
2022-11-26T07:19:21.493Z,6.50
2022-11-26T07:21:54.535Z,6.40
2022-11-26T07:24:26.405Z,6.40
2022-11-26T07:26:59.116Z,6.40
2022-11-26T07:29:31.201Z,6.30
2022-11-26T07:32:04.025Z,6.20
2022-11-26T07:34:36.003Z,6.20
2022-11-26T07:39:41.505Z,6.30
2022-11-26T07:42:15.042Z,6.30
2022-11-26T07:47:20.095Z,6.40
2022-11-26T07:49:52.685Z,6.50
2022-11-26T07:52:25.016Z,6.60
2022-11-26T07:54:57.403Z,6.60
2022-11-26T07:57:29.268Z,6.60
2022-11-26T08:00:01.162Z,6.60
2022-11-26T08:02:44.680Z,6.70
2022-11-26T08:05:16.578Z,6.70
2022-11-26T08:07:49.325Z,6.80
2022-11-26T08:15:27.029Z,6.90
2022-11-26T08:20:32.826Z,7.00
2022-11-26T08:23:05.132Z,7.10
2022-11-26T08:25:59.331Z,7.10
2022-11-26T08:28:32.797Z,7.20
2022-11-26T08:31:09.055Z,7.20
2022-11-26T08:33:42.510Z,7.20
2022-11-26T08:36:14.880Z,7.20
2022-11-26T08:38:47.211Z,7.30
2022-11-26T08:41:19.059Z,7.30
2022-11-26T08:44:06.056Z,7.40
2022-11-26T08:46:41.463Z,7.50
2022-11-26T08:49:15.055Z,7.50
2022-11-26T08:51:47.861Z,7.70
2022-11-26T08:54:20.209Z,7.90
2022-11-26T08:56:52.744Z,8.20
2022-11-26T08:59:25.290Z,8.50
2022-11-26T09:01:57.643Z,8.90
2022-11-26T09:07:02.674Z,9.40
2022-11-26T09:12:29.359Z,9.70
2022-11-26T09:15:01.741Z,10.20
2022-11-26T09:17:33.640Z,10.70
2022-11-26T09:20:07.024Z,11.30
2022-11-26T09:22:39.446Z,11.20
2022-11-26T09:25:12.677Z,11.00
2022-11-26T09:27:44.513Z,10.90
2022-11-26T09:30:17.534Z,11.20
2022-11-26T09:32:49.408Z,11.90
2022-11-26T09:35:22.117Z,12.60
2022-11-26T09:37:54.839Z,12.50
2022-11-26T09:40:48.442Z,12.30
2022-11-26T09:43:37.985Z,13.30
2022-11-26T09:46:12.651Z,12.80
2022-11-26T09:48:45.256Z,12.40
2022-11-26T09:51:20.784Z,12.00
2022-11-26T09:53:54.190Z,12.20
2022-11-26T09:56:28.134Z,12.30
2022-11-26T09:59:05.856Z,12.20
2022-11-26T10:01:40.602Z,12.30
2022-11-26T10:04:27.717Z,12.20
2022-11-26T10:07:24.093Z,12.40
2022-11-26T10:10:22.929Z,12.40
2022-11-26T10:13:37.451Z,12.50
2022-11-26T10:16:19.236Z,12.30
2022-11-26T10:21:59.724Z,12.40
2022-11-26T10:24:37.705Z,12.60
2022-11-26T10:27:19.645Z,12.60
2022-11-26T10:29:59.851Z,12.90
2022-11-26T10:32:41.661Z,13.20
2022-11-26T10:35:23.770Z,12.60
2022-11-26T10:37:57.243Z,12.10
2022-11-26T10:40:32.420Z,12.10
2022-11-26T10:43:22.119Z,12.10
2022-11-26T10:45:57.273Z,12.70
2022-11-26T10:48:32.172Z,13.10
2022-11-26T10:51:33.537Z,12.70
2022-11-26T10:56:46.285Z,12.40
2022-11-26T10:59:30.296Z,12.20
2022-11-26T11:02:14.989Z,11.70
2022-11-26T11:04:52.295Z,11.30
2022-11-26T11:07:40.466Z,11.20
2022-11-26T11:13:08.724Z,11.70
2022-11-26T11:15:41.725Z,11.90
2022-11-26T11:18:13.906Z,12.10
2022-11-26T11:20:59.039Z,12.10
2022-11-26T11:24:07.868Z,11.80
2022-11-26T11:26:46.884Z,11.70
2022-11-26T11:29:36.636Z,12.00
2022-11-26T11:32:39.676Z,12.00
2022-11-26T11:35:23.922Z,12.20
2022-11-26T11:37:58.094Z,12.30
2022-11-26T11:40:41.888Z,11.70
2022-11-26T11:43:37.144Z,11.50
2022-11-26T11:46:41.779Z,11.30
2022-11-26T11:49:42.281Z,11.20
2022-11-26T11:52:53.350Z,9.30
2022-11-26T11:56:14.568Z,11.40
2022-11-26T11:59:11.621Z,11.40
2022-11-26T12:02:21.580Z,11.50
2022-11-26T12:05:52.892Z,11.20
2022-11-26T12:09:07.241Z,11.20
2022-11-26T12:11:59.137Z,11.40
2022-11-26T12:14:51.760Z,11.50
2022-11-26T12:17:36.454Z,11.80
2022-11-26T12:20:28.773Z,11.80
2022-11-26T12:23:32.334Z,11.80
2022-11-26T12:26:23.587Z,11.70
2022-11-26T12:29:20.166Z,11.90
2022-11-26T12:31:59.470Z,12.30
2022-11-26T12:34:46.130Z,12.10
2022-11-26T12:37:24.323Z,12.00
2022-11-26T12:40:35.709Z,12.10
2022-11-26T12:43:28.306Z,12.00
2022-11-26T12:46:09.059Z,11.80
2022-11-26T12:48:53.322Z,11.50
2022-11-26T12:52:08.624Z,11.50
2022-11-26T12:55:10.799Z,11.60
2022-11-26T12:58:11.104Z,11.60
2022-11-26T13:03:19.297Z,11.50
2022-11-26T13:06:15.095Z,11.40
2022-11-26T13:09:54.011Z,11.40
2022-11-26T13:12:46.564Z,11.30
2022-11-26T13:15:38.634Z,11.20
2022-11-26T13:18:24.039Z,11.20
2022-11-26T13:21:17.054Z,11.30
2022-11-26T13:24:01.166Z,11.20
2022-11-26T13:27:26.911Z,11.00
2022-11-26T13:30:05.505Z,11.10
2022-11-26T13:35:34.929Z,10.90
2022-11-26T13:41:43.789Z,10.60
2022-11-26T13:44:59.728Z,10.40
2022-11-26T13:47:31.530Z,10.50
2022-11-26T13:50:30.439Z,10.40
2022-11-26T13:53:26.815Z,10.20
2022-11-26T13:56:04.952Z,10.20
2022-11-26T13:58:49.935Z,10.10
2022-11-26T14:01:34.185Z,10.10
2022-11-26T14:04:28.875Z,10.00
2022-11-26T14:07:03.732Z,10.10
2022-11-26T14:09:42.870Z,9.80
2022-11-26T14:12:17.021Z,10.00
2022-11-26T14:14:53.068Z,10.00
2022-11-26T14:17:31.104Z,10.00
2022-11-26T14:20:07.057Z,10.10
2022-11-26T14:25:13.843Z,9.60
2022-11-26T14:27:55.857Z,9.50
2022-11-26T14:33:05.530Z,9.50
2022-11-26T14:35:40.425Z,9.40
2022-11-26T14:38:28.602Z,9.60
2022-11-26T14:41:02.185Z,9.70
2022-11-26T14:43:34.820Z,9.70
2022-11-26T14:46:27.816Z,9.80
2022-11-26T14:49:01.659Z,9.70
2022-11-26T14:51:34.748Z,9.70
2022-11-26T14:54:22.693Z,9.60
2022-11-26T14:56:57.470Z,9.50
2022-11-26T15:02:02.882Z,9.40
2022-11-26T15:04:37.561Z,9.40
2022-11-26T15:07:25.854Z,9.30
2022-11-26T15:10:31.349Z,9.30
2022-11-26T15:13:33.345Z,9.30
2022-11-26T15:16:27.010Z,9.30
2022-11-26T15:19:00.668Z,9.10
2022-11-26T15:21:34.137Z,9.10
2022-11-26T15:24:09.442Z,9.10
2022-11-26T15:29:32.310Z,9.10
2022-11-26T15:32:05.328Z,9.00
2022-11-26T15:34:38.647Z,8.90
2022-11-26T15:39:43.468Z,8.70
2022-11-26T15:42:28.736Z,8.60
2022-11-26T15:45:00.913Z,8.50
2022-11-26T15:50:06.680Z,8.40
2022-11-26T15:52:39.608Z,8.30
2022-11-26T15:55:30.037Z,8.20
2022-11-26T15:58:08.328Z,8.00
2022-11-26T16:00:42.621Z,8.00
2022-11-26T16:03:46.897Z,8.00
2022-11-26T16:06:43.741Z,7.90
2022-11-26T16:09:18.272Z,7.80
2022-11-26T16:12:00.967Z,7.90
2022-11-26T16:14:39.451Z,7.90
2022-11-26T16:17:16.893Z,7.80
2022-11-26T16:19:54.491Z,7.90
2022-11-26T16:22:33.103Z,7.90
2022-11-26T16:25:24.997Z,8.00
2022-11-26T16:28:15.373Z,8.00
2022-11-26T16:30:47.261Z,7.80
2022-11-26T16:33:20.069Z,7.70
2022-11-26T16:38:27.138Z,7.60
2022-11-26T16:41:02.885Z,7.50
2022-11-26T16:46:23.973Z,7.40
2022-11-26T16:48:56.117Z,7.40
2022-11-26T16:54:01.647Z,7.30
2022-11-26T16:56:39.102Z,7.20
2022-11-26T16:59:23.797Z,7.30
2022-11-26T17:01:56.559Z,7.20
2022-11-26T17:04:28.880Z,7.30
2022-11-26T17:07:01.130Z,7.20
2022-11-26T17:09:33.079Z,7.30
2022-11-26T17:12:06.857Z,7.30
2022-11-26T17:14:38.713Z,7.20
2022-11-26T17:17:23.782Z,7.20
2022-11-26T17:25:02.991Z,7.20
2022-11-26T17:27:34.897Z,7.20
2022-11-26T17:30:13.229Z,7.10
2022-11-26T17:35:18.233Z,8.30
2022-11-26T17:40:24.633Z,7.50
2022-11-26T17:42:57.005Z,7.30
2022-11-26T17:45:28.880Z,7.30
2022-11-26T17:48:01.568Z,7.20
2022-11-26T17:50:36.682Z,7.20
2022-11-26T17:53:09.158Z,7.30
2022-11-26T17:55:41.474Z,7.20
2022-11-26T17:58:13.457Z,7.30
2022-11-26T18:00:46.140Z,7.30
2022-11-26T18:13:28.773Z,7.10
2022-11-26T18:16:01.165Z,7.00
2022-11-26T18:21:06.267Z,6.90
2022-11-26T18:26:18.166Z,6.90
2022-11-26T18:28:50.000Z,8.50
2022-11-26T18:31:23.694Z,6.80
2022-11-26T18:33:55.638Z,6.80
2022-11-26T18:36:28.736Z,6.80
2022-11-26T18:39:03.391Z,6.80
2022-11-26T18:44:09.305Z,6.60
2022-11-26T18:46:42.905Z,6.70
2022-11-26T18:49:15.206Z,6.60
2022-11-26T18:51:49.510Z,6.50
2022-11-26T18:56:54.391Z,6.50
2022-11-26T18:59:26.848Z,6.40
2022-11-26T19:01:59.660Z,6.40
2022-11-26T19:12:13.367Z,6.20
2022-11-26T19:14:45.323Z,6.20
2022-11-26T19:19:50.218Z,7.80
2022-11-26T19:24:54.978Z,6.20
2022-11-26T19:27:27.449Z,6.10
2022-11-26T19:29:59.355Z,6.00
2022-11-26T19:32:31.881Z,5.90
2022-11-26T19:35:06.117Z,6.00
2022-11-26T19:37:38.939Z,6.10
2022-11-26T19:40:11.239Z,6.20
2022-11-26T19:47:50.862Z,6.40
2022-11-26T19:50:22.734Z,6.40
2022-11-26T19:52:55.289Z,6.50
2022-11-26T19:55:27.374Z,6.50
2022-11-26T20:03:05.209Z,6.40
2022-11-26T20:05:37.315Z,6.20
2022-11-26T20:08:10.634Z,6.30
2022-11-26T20:10:48.425Z,6.30
2022-11-26T20:15:55.011Z,6.30
2022-11-26T20:21:10.417Z,6.10
2022-11-26T20:23:43.224Z,6.00
2022-11-26T20:26:21.652Z,5.80
2022-11-26T20:28:54.498Z,5.70
2022-11-26T20:31:26.757Z,5.70
2022-11-26T20:34:03.222Z,5.70
2022-11-26T20:36:35.189Z,5.60
2022-11-26T20:39:07.740Z,5.50
2022-11-26T20:41:39.625Z,5.40
2022-11-26T20:44:13.213Z,5.40
2022-11-26T20:46:45.174Z,5.30
2022-11-26T20:49:17.793Z,5.20
2022-11-26T20:51:49.888Z,5.10
2022-11-26T20:54:22.454Z,5.10
2022-11-26T20:56:54.334Z,5.10
2022-11-26T20:59:26.691Z,5.00
2022-11-26T21:04:31.775Z,5.00
2022-11-26T21:07:04.244Z,5.00
2022-11-26T21:09:36.718Z,5.00
2022-11-26T21:12:08.883Z,4.90
2022-11-26T21:14:41.581Z,4.80
2022-11-26T21:17:13.874Z,4.90
2022-11-26T21:19:46.498Z,4.80
2022-11-26T21:22:18.397Z,4.70
2022-11-26T21:24:50.934Z,4.70
2022-11-26T21:32:28.017Z,4.80
2022-11-26T21:35:00.741Z,4.80
2022-11-26T21:37:32.646Z,4.80
2022-11-26T21:40:05.318Z,4.70
2022-11-26T21:42:37.230Z,4.90
2022-11-26T21:45:10.183Z,4.90
2022-11-26T21:47:42.178Z,4.90
2022-11-26T21:50:14.729Z,4.90
2022-11-26T21:57:52.187Z,4.80
2022-11-26T22:00:24.658Z,4.80
2022-11-26T22:02:56.659Z,4.90
2022-11-26T22:08:01.838Z,4.90
2022-11-26T22:10:36.209Z,4.90
2022-11-26T22:13:08.519Z,4.90
2022-11-26T22:15:42.896Z,5.10
2022-11-26T22:18:14.864Z,5.10
2022-11-26T22:20:54.645Z,5.10
2022-11-26T22:25:59.727Z,5.20
2022-11-26T22:28:31.718Z,5.20
2022-11-26T22:31:19.113Z,5.20
2022-11-26T22:33:56.166Z,5.20
2022-11-26T22:36:29.191Z,5.30
2022-11-26T22:39:03.404Z,5.40
2022-11-26T22:41:36.003Z,5.30
2022-11-26T22:46:40.944Z,5.40
2022-11-26T22:49:16.045Z,5.40
2022-11-26T22:51:48.876Z,5.40
2022-11-26T22:54:21.309Z,5.40
2022-11-26T22:56:54.034Z,5.40
2022-11-26T22:59:27.503Z,5.40
2022-11-26T23:04:32.465Z,5.30
2022-11-26T23:07:05.051Z,5.20
2022-11-26T23:09:37.257Z,4.90
2022-11-26T23:14:43.590Z,4.70
2022-11-26T23:17:16.064Z,4.60
2022-11-26T23:19:47.913Z,4.50
2022-11-26T23:22:20.469Z,4.50
2022-11-26T23:24:52.357Z,4.30
2022-11-26T23:27:24.908Z,4.20
2022-11-26T23:32:32.635Z,4.00
2022-11-26T23:35:05.016Z,4.00
2022-11-26T23:37:39.617Z,3.90
2022-11-26T23:40:13.450Z,3.80
2022-11-26T23:45:18.459Z,3.60
2022-11-26T23:47:50.896Z,3.60
2022-11-26T23:50:22.824Z,3.50
2022-11-26T23:52:55.280Z,3.50
2022-11-26T23:55:27.566Z,3.40
2022-11-26T23:58:00.073Z,3.40
